Aberdeen, Washington
Current Conditions -  °F | °C
As of 6:53 PM on Saturday 25 Oct 2014 (Local Time) from KHQM Reporting Station
Light Rain Light Rain  
Wind Chill: 55°   Ceiling: 4800
Heat Index: 55°   Visibility: 5mi
Dew Point: 49°   Wind: 22mph
Humidity: 80%   Direction: 260°W
Pressure: 29.47"   Gusts: 36mph
Location:  46.98°N, 123.81°W
Report Text: KHQM 260153Z AUTO 26019G31KT 5SM -RA FEW027 BKN048 OVC055 13/09 A2947 RMK AO2 PK WND 26039/0107 PRESRR SLP983 P0004 T01280094
Loading
Personal Weather Stations






























Interactive Weather Map
Tropical Storm Tracking
New forecast layout! Learn more

10-Day Weather Forecast

Advertisements
Track Severe Weather on mobile